Time;durP1;ratioP1;P1;durP2;ratioP2;P2;SDS_P1;SDS_P2;PMS_P1;PMS_P2;Temp;Humidity;BMP_temperature;BMP_pressure;BME280_temperature;BME280_humidity;BME280_pressure;Samples;Min_cycle;Max_cycle;Signal;HPM_P1;HPM_P2
2023/05/30 00:01:48;;;;;;;;;;;;;;;;;;6309901;28;20044;-49
2023/05/30 00:05:07;;;;;;;28.63;11.95;;;;;;;;;;6305421;28;20323;-52
2023/05/30 00:08:08;;;;;;;23.45;11.93;;;;;;;;;;6306750;28;20052;-50
2023/05/30 00:11:13;;;;;;;26.20;11.45;;;;;;;;;;6306234;28;20094;-47
2023/05/30 00:14:20;;;;;;;21.75;11.25;;;;;;;;;;6307795;28;20079;-51
2023/05/30 00:17:21;;;;;;;22.23;11.70;;;;;;;;;;6307702;28;20131;-53
2023/05/30 00:20:22;;;;;;;25.17;11.20;;;;;;;;;;6309817;28;20135;-48
2023/05/30 00:23:23;;;;;;;26.42;11.32;;;;;;;;;;6304460;28;20097;-51
2023/05/30 00:26:26;;;;;;;26.98;11.40;;;;;;;;;;6308373;28;20956;-58
2023/05/30 00:29:26;;;;;;;23.05;11.13;;;;;;;;;;6309772;28;20117;-52
2023/05/30 00:32:27;;;;;;;21.35;10.60;;;;;;;;;;6307455;28;20060;-55
2023/05/30 00:35:28;;;;;;;26.38;10.77;;;;;;;;;;6307841;28;20094;-50
2023/05/30 00:38:28;;;;;;;25.23;10.10;;;;;;;;;;6309088;28;20051;-48
2023/05/30 00:41:29;;;;;;;22.00;10.52;;;;;;;;;;6309473;28;20146;-48
2023/05/30 00:44:30;;;;;;;21.35;10.77;;;;;;;;;;6309250;28;20051;-47
2023/05/30 00:47:31;;;;;;;23.90;10.37;;;;;;;;;;6306836;28;20059;-49
2023/05/30 00:50:33;;;;;;;19.92;9.93;;;;;;;;;;6308383;28;20481;-53
2023/05/30 00:53:33;;;;;;;20.50;10.93;;;;;;;;;;6308232;28;20142;-47
2023/05/30 00:56:35;;;;;;;17.83;9.52;;;;;;;;;;6306217;28;20048;-48
2023/05/30 00:59:36;;;;;;;23.52;10.05;;;;;;;;;;6308053;28;20037;-58
2023/05/30 01:02:38;;;;;;;18.37;10.03;;;;;;;;;;6301371;28;20086;-50
2023/05/30 01:05:39;;;;;;;21.52;9.93;;;;;;;;;;6303975;28;20083;-51
2023/05/30 01:08:40;;;;;;;21.35;9.82;;;;;;;;;;6307574;28;20052;-50
2023/05/30 01:11:40;;;;;;;18.70;9.48;;;;;;;;;;6307355;28;20070;-49
2023/05/30 01:15:03;;;;;;;24.33;10.05;;;;;;;;;;6306667;28;20502;-48
2023/05/30 01:18:07;;;;;;;21.77;9.00;;;;;;;;;;6307730;28;20481;-52
2023/05/30 01:21:10;;;;;;;18.73;9.57;;;;;;;;;;6308252;28;20052;-49
2023/05/30 01:24:23;;;;;;;16.52;9.10;;;;;;;;;;6309192;28;20083;-48
2023/05/30 01:28:05;;;;;;;20.15;9.65;;;;;;;;;;6308333;28;20054;-51
2023/05/30 01:31:08;;;;;;;21.42;9.70;;;;;;;;;;6298773;28;20576;-48
2023/05/30 01:34:08;;;;;;;19.58;9.02;;;;;;;;;;6309118;28;20144;-50
2023/05/30 01:37:09;;;;;;;19.85;9.55;;;;;;;;;;6307956;28;20067;-49
2023/05/30 01:40:11;;;;;;;17.38;9.45;;;;;;;;;;6307395;28;20044;-47
2023/05/30 01:43:39;;;;;;;17.83;9.23;;;;;;;;;;6308566;28;20044;-58
2023/05/30 01:46:47;;;;;;;21.30;9.30;;;;;;;;;;6310616;28;20044;-49
2023/05/30 01:50:07;;;;;;;16.27;9.25;;;;;;;;;;6309759;28;20183;-50
2023/05/30 01:53:11;;;;;;;18.70;9.18;;;;;;;;;;6308327;28;20059;-49
2023/05/30 01:56:14;;;;;;;18.83;9.70;;;;;;;;;;6309930;28;20075;-49
2023/05/30 01:59:17;;;;;;;20.25;9.48;;;;;;;;;;6307999;28;20047;-49
2023/05/30 02:02:18;;;;;;;18.33;9.05;;;;;;;;;;6306157;28;20044;-48
2023/05/30 02:05:18;;;;;;;20.45;8.75;;;;;;;;;;6305922;28;20143;-48
2023/05/30 02:08:19;;;;;;;18.55;9.52;;;;;;;;;;6306587;28;20422;-49
2023/05/30 02:11:20;;;;;;;23.50;10.27;;;;;;;;;;6305843;28;20128;-48
2023/05/30 02:14:22;;;;;;;17.70;9.25;;;;;;;;;;6306896;28;20056;-49
2023/05/30 02:17:22;;;;;;;15.15;8.77;;;;;;;;;;6309419;28;20072;-49
2023/05/30 02:20:23;;;;;;;20.77;9.05;;;;;;;;;;6308280;28;20051;-47
2023/05/30 02:23:24;;;;;;;15.15;9.05;;;;;;;;;;6308118;28;20139;-52
2023/05/30 02:26:26;;;;;;;20.92;9.60;;;;;;;;;;6305907;28;20044;-49
2023/05/30 02:29:26;;;;;;;;;;;;;;;;;;6309989;28;20059;-48
2023/05/30 02:32:27;;;;;;;16.73;8.68;;;;;;;;;;6306054;28;20968;-47
2023/05/30 02:35:28;;;;;;;16.63;8.40;;;;;;;;;;6304579;28;20668;-47
2023/05/30 02:38:28;;;;;;;18.33;8.77;;;;;;;;;;6306796;28;20081;-48
2023/05/30 02:41:29;;;;;;;17.25;8.63;;;;;;;;;;6312383;28;20390;-49
2023/05/30 02:44:30;;;;;;;18.33;8.57;;;;;;;;;;6313839;28;20379;-47
2023/05/30 02:47:31;;;;;;;17.05;8.20;;;;;;;;;;6312393;28;20054;-48
2023/05/30 02:50:32;;;;;;;18.40;8.98;;;;;;;;;;6307854;28;20127;-48
2023/05/30 02:53:32;;;;;;;16.52;8.85;;;;;;;;;;6306113;28;20068;-49
2023/05/30 02:56:33;;;;;;;16.02;8.60;;;;;;;;;;6308134;28;20036;-52
2023/05/30 02:59:33;;;;;;;19.13;8.70;;;;;;;;;;6308592;28;20054;-49
2023/05/30 03:02:34;;;;;;;17.80;8.52;;;;;;;;;;6304376;28;20044;-49
2023/05/30 03:05:35;;;;;;;18.45;8.70;;;;;;;;;;6305488;28;20055;-47
2023/05/30 03:08:36;;;;;;;18.40;8.73;;;;;;;;;;6304868;28;20094;-48
2023/05/30 03:11:37;;;;;;;19.67;9.00;;;;;;;;;;6306479;28;20040;-48
2023/05/30 03:14:38;;;;;;;18.80;8.93;;;;;;;;;;6306713;28;20445;-49
2023/05/30 03:17:41;;;;;;;17.73;9.07;;;;;;;;;;6306677;28;20497;-49
2023/05/30 03:20:42;;;;;;;18.60;9.38;;;;;;;;;;6310950;28;20143;-48
2023/05/30 03:23:43;;;;;;;20.27;9.50;;;;;;;;;;6311807;28;20048;-48
2023/05/30 03:26:43;;;;;;;28.67;9.77;;;;;;;;;;6312024;28;20059;-51
2023/05/30 03:29:45;;;;;;;18.90;9.27;;;;;;;;;;6311880;28;20040;-50
2023/05/30 03:32:48;;;;;;;20.48;8.85;;;;;;;;;;6308936;28;20095;-49
2023/05/30 03:35:49;;;;;;;26.25;10.52;;;;;;;;;;6309971;28;20051;-47
2023/05/30 03:38:50;;;;;;;17.97;9.20;;;;;;;;;;6311006;28;20614;-48
2023/05/30 03:41:50;;;;;;;14.77;9.43;;;;;;;;;;6309689;28;20478;-48
2023/05/30 03:44:51;;;;;;;20.70;10.15;;;;;;;;;;6310718;28;20475;-51
2023/05/30 03:47:51;;;;;;;19.23;10.18;;;;;;;;;;6313209;28;20052;-48
2023/05/30 03:50:52;;;;;;;20.27;10.00;;;;;;;;;;6309105;28;20899;-48
2023/05/30 03:53:53;;;;;;;18.13;9.18;;;;;;;;;;6311098;28;20456;-48
2023/05/30 03:56:53;;;;;;;22.13;8.82;;;;;;;;;;6311441;28;20043;-52
2023/05/30 03:59:54;;;;;;;16.55;9.50;;;;;;;;;;6312985;28;20490;-52
2023/05/30 04:02:58;;;;;;;48.67;25.53;;;;;;;;;;6310278;28;20664;-47
2023/05/30 04:05:59;;;;;;;32.65;14.27;;;;;;;;;;6310918;28;20075;-49
2023/05/30 04:09:02;;;;;;;21.95;11.55;;;;;;;;;;6310410;28;20054;-48
2023/05/30 04:12:03;;;;;;;27.02;14.48;;;;;;;;;;6310656;28;20101;-49
2023/05/30 04:15:05;;;;;;;21.73;10.30;;;;;;;;;;6312359;28;20457;-48
2023/05/30 04:18:06;;;;;;;25.38;10.95;;;;;;;;;;6309919;28;20059;-49
2023/05/30 04:21:07;;;;;;;18.45;9.77;;;;;;;;;;6309098;28;20052;-51
2023/05/30 04:24:08;;;;;;;16.80;9.20;;;;;;;;;;6308773;28;20167;-48
2023/05/30 04:27:09;;;;;;;16.73;9.00;;;;;;;;;;6310690;28;20051;-50
2023/05/30 04:30:11;;;;;;;17.43;8.97;;;;;;;;;;6308846;28;20044;-49
2023/05/30 04:33:11;;;;;;;21.45;9.00;;;;;;;;;;6313708;28;20407;-49
2023/05/30 04:36:18;;;;;;;16.70;9.20;;;;;;;;;;6313819;28;20044;-54
2023/05/30 04:39:20;;;;;;;17.77;8.55;;;;;;;;;;6310212;28;20075;-48
2023/05/30 04:42:23;;;;;;;16.58;9.13;;;;;;;;;;6308566;28;20040;-51
2023/05/30 04:45:28;;;;;;;17.30;8.93;;;;;;;;;;6302679;28;20083;-48
2023/05/30 04:48:29;;;;;;;17.30;8.95;;;;;;;;;;6312089;28;20044;-50
2023/05/30 04:51:32;;;;;;;16.15;8.57;;;;;;;;;;6308220;28;20141;-49
2023/05/30 04:54:32;;;;;;;;;;;;;;;;;;6310550;28;20052;-55
2023/05/30 04:57:33;;;;;;;20.20;8.80;;;;;;;;;;6303663;28;20300;-51
2023/05/30 05:00:36;;;;;;;22.35;8.85;;;;;;;;;;6311029;28;20140;-50
2023/05/30 05:03:40;;;;;;;16.15;8.45;;;;;;;;;;6311302;28;20040;-52
2023/05/30 05:06:40;;;;;;;16.38;8.13;;;;;;;;;;6307279;28;20056;-50
2023/05/30 05:09:41;;;;;;;20.08;8.30;;;;;;;;;;6312823;28;20055;-50
2023/05/30 05:12:41;;;;;;;16.83;8.32;;;;;;;;;;6309501;28;20050;-48
2023/05/30 05:15:42;;;;;;;23.00;8.57;;;;;;;;;;6309708;28;20044;-49
2023/05/30 05:18:43;;;;;;;15.35;8.95;;;;;;;;;;6313203;28;20064;-48
2023/05/30 05:21:43;;;;;;;19.45;8.88;;;;;;;;;;6308253;28;20036;-50
2023/05/30 05:24:44;;;;;;;23.85;10.05;;;;;;;;;;6303067;28;20462;-47
2023/05/30 05:27:45;;;;;;;18.85;9.38;;;;;;;;;;6306516;28;20667;-49
2023/05/30 05:30:48;;;;;;;20.48;9.38;;;;;;;;;;6308204;28;20475;-50
2023/05/30 05:33:49;;;;;;;22.73;9.48;;;;;;;;;;6308168;28;20543;-50
2023/05/30 05:36:49;;;;;;;22.50;9.85;;;;;;;;;;6308040;28;20048;-50
2023/05/30 05:39:50;;;;;;;21.83;9.45;;;;;;;;;;6309619;28;20082;-48
2023/05/30 05:42:50;;;;;;;24.63;9.95;;;;;;;;;;6305901;28;21403;-52
2023/05/30 05:45:51;;;;;;;28.50;9.52;;;;;;;;;;6305164;28;20051;-55
2023/05/30 05:48:54;;;;;;;26.13;10.27;;;;;;;;;;6305105;28;20052;-49
2023/05/30 05:51:55;;;;;;;22.67;9.90;;;;;;;;;;6308067;28;20047;-48
2023/05/30 05:54:55;;;;;;;23.63;9.88;;;;;;;;;;6307421;28;20123;-51
2023/05/30 05:57:56;;;;;;;24.77;10.18;;;;;;;;;;6306296;28;20101;-50
2023/05/30 06:00:56;;;;;;;27.08;10.48;;;;;;;;;;6308046;28;20399;-48
2023/05/30 06:04:01;;;;;;;20.30;10.00;;;;;;;;;;6302779;28;20506;-48
2023/05/30 06:07:01;;;;;;;22.25;9.93;;;;;;;;;;6307256;28;20089;-48
2023/05/30 06:10:02;;;;;;;21.05;10.52;;;;;;;;;;6305746;28;20072;-49
2023/05/30 06:13:03;;;;;;;23.55;10.05;;;;;;;;;;6306936;28;20040;-50
2023/05/30 06:16:04;;;;;;;22.05;9.85;;;;;;;;;;6306217;28;20471;-50
2023/05/30 06:19:04;;;;;;;20.80;9.95;;;;;;;;;;6305658;28;20476;-48
2023/05/30 06:22:05;;;;;;;23.95;10.18;;;;;;;;;;6305233;28;20399;-48
2023/05/30 06:25:07;;;;;;;21.63;10.63;;;;;;;;;;6304762;28;20059;-49
2023/05/30 06:28:08;;;;;;;;;;;;;;;;;;6304186;28;20787;-47
2023/05/30 06:31:08;;;;;;;23.27;10.25;;;;;;;;;;6307724;28;19920;-50
2023/05/30 06:34:09;;;;;;;20.70;10.77;;;;;;;;;;6305241;28;20418;-49
2023/05/30 06:37:10;;;;;;;18.95;8.90;;;;;;;;;;6305045;28;20063;-47
2023/05/30 06:40:11;;;;;;;18.92;9.10;;;;;;;;;;6306640;28;20052;-47
2023/05/30 06:43:12;;;;;;;22.65;8.80;;;;;;;;;;6304604;28;20044;-51
2023/05/30 06:46:13;;;;;;;15.63;8.57;;;;;;;;;;6300121;28;20044;-57
2023/05/30 06:49:13;;;;;;;22.10;9.43;;;;;;;;;;6303010;28;20403;-58
2023/05/30 06:52:14;;;;;;;22.77;10.17;;;;;;;;;;6306282;28;20416;-47
2023/05/30 06:55:15;;;;;;;17.83;8.57;;;;;;;;;;6301821;28;20363;-49
2023/05/30 06:58:17;;;;;;;17.17;8.32;;;;;;;;;;6298202;28;20517;-48
2023/05/30 07:01:18;;;;;;;20.45;9.05;;;;;;;;;;6304708;28;20055;-47
2023/05/30 07:04:19;;;;;;;20.98;9.38;;;;;;;;;;6304330;28;20043;-49
2023/05/30 07:07:20;;;;;;;19.92;8.45;;;;;;;;;;6305345;28;20174;-48
2023/05/30 07:10:21;;;;;;;15.80;8.57;;;;;;;;;;6306784;28;20500;-49
2023/05/30 07:13:21;;;;;;;20.93;8.70;;;;;;;;;;6287006;28;20046;-50
2023/05/30 07:16:22;;;;;;;19.50;8.50;;;;;;;;;;6305908;28;20387;-49
2023/05/30 07:19:24;;;;;;;19.87;7.73;;;;;;;;;;6301209;28;20040;-51
2023/05/30 07:22:25;;;;;;;;;;;;;;;;;;6305873;28;20056;-50
2023/05/30 07:25:25;;;;;;;21.67;7.72;;;;;;;;;;6304146;28;19973;-48
2023/05/30 07:28:26;;;;;;;13.88;7.22;;;;;;;;;;6301692;28;20079;-48
2023/05/30 07:31:26;;;;;;;17.60;7.73;;;;;;;;;;6303268;28;20442;-49
2023/05/30 07:34:27;;;;;;;16.37;7.57;;;;;;;;;;6301628;28;20048;-50
2023/05/30 07:37:27;;;;;;;18.80;8.23;;;;;;;;;;6304302;28;20036;-48
2023/05/30 07:40:28;;;;;;;18.40;8.27;;;;;;;;;;6306705;28;20052;-48
2023/05/30 07:43:29;;;;;;;16.60;7.77;;;;;;;;;;6304963;28;20052;-48
2023/05/30 07:46:29;;;;;;;12.33;7.10;;;;;;;;;;6302014;28;20047;-53
2023/05/30 07:49:30;;;;;;;17.33;6.87;;;;;;;;;;6304083;28;20497;-48
2023/05/30 07:52:31;;;;;;;16.90;6.67;;;;;;;;;;6304203;28;20040;-50
2023/05/30 07:55:31;;;;;;;22.13;6.97;;;;;;;;;;6302317;28;20189;-50
2023/05/30 07:58:32;;;;;;;13.30;6.80;;;;;;;;;;6303802;28;20040;-51
2023/05/30 08:01:33;;;;;;;17.20;6.40;;;;;;;;;;6302417;28;20048;-52
2023/05/30 08:04:34;;;;;;;12.97;6.33;;;;;;;;;;6303949;28;20429;-49
2023/05/30 08:07:34;;;;;;;13.40;6.50;;;;;;;;;;6309371;28;20044;-48
2023/05/30 08:10:35;;;;;;;17.90;6.67;;;;;;;;;;6311423;28;20048;-50
2023/05/30 08:13:36;;;;;;;12.50;6.33;;;;;;;;;;6304591;28;20044;-52
2023/05/30 08:16:39;;;;;;;15.13;6.63;;;;;;;;;;6308164;28;20040;-47
2023/05/30 08:19:42;;;;;;;14.50;6.53;;;;;;;;;;6308763;28;20300;-48
2023/05/30 08:22:43;;;;;;;13.10;6.30;;;;;;;;;;6307378;28;20076;-47
2023/05/30 08:25:45;;;;;;;14.37;6.80;;;;;;;;;;6308321;28;20042;-48
2023/05/30 08:28:46;;;;;;;12.60;6.82;;;;;;;;;;6309380;28;20040;-53
2023/05/30 08:31:46;;;;;;;16.57;6.33;;;;;;;;;;6308533;28;20044;-55
2023/05/30 08:34:47;;;;;;;13.03;6.40;;;;;;;;;;6306459;28;20040;-51
2023/05/30 08:37:48;;;;;;;15.27;6.73;;;;;;;;;;6308205;28;20685;-47
2023/05/30 08:40:51;;;;;;;12.47;6.37;;;;;;;;;;6308397;28;20075;-49
2023/05/30 08:43:52;;;;;;;13.55;6.53;;;;;;;;;;6307627;28;20048;-47
2023/05/30 08:46:53;;;;;;;11.10;6.23;;;;;;;;;;6310509;28;20719;-49
2023/05/30 08:49:54;;;;;;;12.60;6.90;;;;;;;;;;6305196;28;20421;-50
2023/05/30 08:53:22;;;;;;;13.50;5.77;;;;;;;;;;6305465;28;20123;-50
2023/05/30 08:56:39;;;;;;;14.13;6.20;;;;;;;;;;6306204;28;20124;-49
2023/05/30 08:59:40;;;;;;;12.73;6.07;;;;;;;;;;6306534;28;20170;-49
2023/05/30 09:02:43;;;;;;;11.43;5.73;;;;;;;;;;6309411;28;20546;-50
2023/05/30 09:05:45;;;;;;;13.23;5.82;;;;;;;;;;6308713;28;20051;-48
2023/05/30 09:08:46;;;;;;;13.48;6.18;;;;;;;;;;6306724;28;20241;-47
2023/05/30 09:11:47;;;;;;;11.67;6.00;;;;;;;;;;6306832;28;20506;-48
2023/05/30 09:14:47;;;;;;;13.13;7.47;;;;;;;;;;6306216;28;20297;-48
2023/05/30 09:17:48;;;;;;;12.97;6.40;;;;;;;;;;6305710;28;20388;-53
2023/05/30 09:20:50;;;;;;;11.53;5.70;;;;;;;;;;6309453;28;20052;-52
2023/05/30 09:23:51;;;;;;;14.18;6.10;;;;;;;;;;6307000;28;20291;-48
2023/05/30 09:26:57;;;;;;;15.23;6.47;;;;;;;;;;6306029;28;20388;-59
2023/05/30 09:30:05;;;;;;;16.00;6.03;;;;;;;;;;6309466;28;20182;-49
2023/05/30 09:33:06;;;;;;;11.65;5.63;;;;;;;;;;6306866;28;21410;-50
2023/05/30 09:36:07;;;;;;;12.55;6.30;;;;;;;;;;6306565;28;20126;-49
2023/05/30 09:39:07;;;;;;;11.30;5.97;;;;;;;;;;6306585;28;20529;-53
2023/05/30 09:42:08;;;;;;;12.03;5.70;;;;;;;;;;6306354;28;20808;-50
2023/05/30 09:45:11;;;;;;;10.87;5.83;;;;;;;;;;6304641;28;20083;-48
2023/05/30 09:48:17;;;;;;;14.05;6.47;;;;;;;;;;6303726;28;20051;-48
2023/05/30 09:51:20;;;;;;;10.70;6.03;;;;;;;;;;6304484;28;22063;-48
2023/05/30 09:54:21;;;;;;;11.82;5.88;;;;;;;;;;6304364;28;20218;-49
2023/05/30 09:57:23;;;;;;;21.70;6.10;;;;;;;;;;6304041;28;20048;-48
2023/05/30 10:00:26;;;;;;;13.05;6.47;;;;;;;;;;6302873;28;20554;-49
2023/05/30 10:03:45;;;;;;;14.40;6.22;;;;;;;;;;6306391;28;20517;-51
2023/05/30 10:06:53;;;;;;;15.05;6.53;;;;;;;;;;6306382;28;20135;-48
2023/05/30 10:09:56;;;;;;;13.15;6.38;;;;;;;;;;6302236;28;20070;-47
2023/05/30 10:13:00;;;;;;;16.02;6.32;;;;;;;;;;6303891;28;20074;-49
2023/05/30 10:16:02;;;;;;;19.08;8.10;;;;;;;;;;6305022;28;20058;-49
2023/05/30 10:19:05;;;;;;;15.30;6.97;;;;;;;;;;6303219;28;20043;-49
2023/05/30 10:22:10;;;;;;;15.05;6.38;;;;;;;;;;6306190;28;20055;-48
2023/05/30 10:25:12;;;;;;;13.07;6.40;;;;;;;;;;6302740;28;20079;-46
2023/05/30 10:28:21;;;;;;;12.23;6.68;;;;;;;;;;6303090;28;20048;-49
2023/05/30 10:31:25;;;;;;;13.15;6.15;;;;;;;;;;6301568;28;20082;-47
2023/05/30 10:34:37;;;;;;;15.32;7.10;;;;;;;;;;6303742;28;20074;-50
2023/05/30 10:37:39;;;;;;;12.30;6.13;;;;;;;;;;6306562;28;20542;-47
2023/05/30 10:41:00;;;;;;;13.77;6.70;;;;;;;;;;6306602;28;20040;-47
2023/05/30 10:44:11;;;;;;;10.87;6.40;;;;;;;;;;6301891;28;20134;-49
2023/05/30 10:47:50;;;;;;;15.23;6.53;;;;;;;;;;6304127;28;20047;-46
2023/05/30 10:50:58;;;;;;;19.83;6.85;;;;;;;;;;6303363;28;20575;-48
2023/05/30 10:54:00;;;;;;;11.75;6.80;;;;;;;;;;6302178;28;20043;-47
2023/05/30 10:57:23;;;;;;;14.52;6.47;;;;;;;;;;6304034;28;20083;-49
2023/05/30 11:00:29;;;;;;;16.77;6.68;;;;;;;;;;6303111;28;20491;-48
2023/05/30 11:03:36;;;;;;;10.90;6.00;;;;;;;;;;6301655;28;20036;-46
2023/05/30 11:06:45;;;;;;;15.50;6.18;;;;;;;;;;6303788;28;20066;-48
2023/05/30 11:10:05;;;;;;;14.65;6.38;;;;;;;;;;6305009;28;20644;-47
2023/05/30 11:13:08;;;;;;;12.60;6.05;;;;;;;;;;6303600;28;20143;-47
2023/05/30 11:16:27;;;;;;;14.63;6.47;;;;;;;;;;6303245;28;20064;-48
2023/05/30 11:19:33;;;;;;;10.95;6.32;;;;;;;;;;6302354;28;20048;-48
2023/05/30 11:22:37;;;;;;;12.60;6.40;;;;;;;;;;6304201;28;20079;-48
2023/05/30 11:25:37;;;;;;;15.30;7.00;;;;;;;;;;6306484;28;20433;-57
2023/05/30 11:28:40;;;;;;;15.23;6.27;;;;;;;;;;6305197;28;20063;-52
2023/05/30 11:31:42;;;;;;;34.63;9.98;;;;;;;;;;6304489;28;20040;-47
2023/05/30 11:34:43;;;;;;;16.67;6.90;;;;;;;;;;6305809;28;20127;-53
2023/05/30 11:37:45;;;;;;;25.13;9.70;;;;;;;;;;6306167;28;20044;-56
2023/05/30 11:40:46;;;;;;;13.07;6.50;;;;;;;;;;6302136;28;20127;-54
2023/05/30 11:43:48;;;;;;;13.60;6.25;;;;;;;;;;6304127;28;20044;-55
2023/05/30 11:47:06;;;;;;;16.00;6.50;;;;;;;;;;6308763;28;20423;-52
2023/05/30 11:50:08;;;;;;;17.17;7.95;;;;;;;;;;6309250;28;20039;-56
2023/05/30 11:53:13;;;;;;;20.70;7.90;;;;;;;;;;6307233;28;20105;-49
2023/05/30 11:56:15;;;;;;;13.98;6.85;;;;;;;;;;6309558;28;20398;-51
2023/05/30 11:59:19;;;;;;;14.13;6.97;;;;;;;;;;6308783;28;20487;-56
2023/05/30 12:02:19;;;;;;;20.55;6.70;;;;;;;;;;6309034;28;20051;-58
2023/05/30 12:05:21;;;;;;;15.27;7.17;;;;;;;;;;6307616;28;20479;-53
2023/05/30 12:08:22;;;;;;;14.15;6.97;;;;;;;;;;6306961;28;20053;-54
2023/05/30 12:11:22;;;;;;;16.47;7.17;;;;;;;;;;6308238;28;20680;-57
2023/05/30 12:14:41;;;;;;;13.00;6.60;;;;;;;;;;6309241;28;20040;-50
2023/05/30 12:17:43;;;;;;;23.25;8.45;;;;;;;;;;6306915;28;20089;-55
2023/05/30 12:20:44;;;;;;;16.02;7.30;;;;;;;;;;6309659;28;20067;-53
2023/05/30 12:23:46;;;;;;;10.40;6.75;;;;;;;;;;6311446;28;20055;-52
2023/05/30 12:26:47;;;;;;;24.10;9.02;;;;;;;;;;6308290;28;20094;-55
2023/05/30 12:29:48;;;;;;;;;;;;;;;;;;6306060;28;20142;-54
2023/05/30 12:32:49;;;;;;;11.75;6.70;;;;;;;;;;6309001;28;19969;-57
2023/05/30 12:35:54;;;;;;;11.52;7.05;;;;;;;;;;6307927;28;20052;-50
2023/05/30 12:38:56;;;;;;;14.82;7.32;;;;;;;;;;6308944;28;20047;-54
2023/05/30 12:41:56;;;;;;;16.00;7.18;;;;;;;;;;6311575;28;20043;-53
2023/05/30 12:45:03;;;;;;;13.70;7.50;;;;;;;;;;6306585;28;20408;-56
2023/05/30 12:48:04;;;;;;;15.68;6.95;;;;;;;;;;6307658;28;20047;-58
2023/05/30 12:51:05;;;;;;;14.33;7.33;;;;;;;;;;6306783;28;20051;-54
2023/05/30 12:54:08;;;;;;;12.23;7.13;;;;;;;;;;6307128;28;20127;-56
2023/05/30 12:57:10;;;;;;;15.25;6.65;;;;;;;;;;6305995;28;20058;-51
2023/05/30 13:00:11;;;;;;;14.63;6.55;;;;;;;;;;6306660;28;20142;-58
2023/05/30 13:03:12;;;;;;;11.93;6.57;;;;;;;;;;6306096;28;20048;-58
2023/05/30 13:06:13;;;;;;;14.83;6.90;;;;;;;;;;6307577;28;20572;-52
2023/05/30 13:09:15;;;;;;;15.37;7.00;;;;;;;;;;6305151;28;20520;-57
2023/05/30 13:12:17;;;;;;;14.60;6.85;;;;;;;;;;6306730;28;20040;-57
2023/05/30 13:15:18;;;;;;;14.38;6.82;;;;;;;;;;6301077;28;20063;-58
2023/05/30 13:18:18;;;;;;;13.47;6.47;;;;;;;;;;6306008;28;20040;-58
2023/05/30 13:21:19;;;;;;;12.63;5.83;;;;;;;;;;6303721;28;20143;-58
2023/05/30 13:24:20;;;;;;;14.67;6.60;;;;;;;;;;6285055;28;20361;-48
2023/05/30 13:27:20;;;;;;;12.83;5.80;;;;;;;;;;6279449;28;20044;-50
2023/05/30 13:30:21;;;;;;;10.57;5.80;;;;;;;;;;6275973;28;20059;-49
2023/05/30 13:33:24;;;;;;;11.53;6.43;;;;;;;;;;6276436;28;20059;-50
2023/05/30 13:36:25;;;;;;;11.80;6.45;;;;;;;;;;6280877;28;20173;-56
2023/05/30 13:39:26;;;;;;;12.77;6.07;;;;;;;;;;6279503;28;21319;-50
2023/05/30 13:42:26;;;;;;;14.50;6.80;;;;;;;;;;6281051;28;20464;-48
2023/05/30 13:45:27;;;;;;;12.70;6.23;;;;;;;;;;6279808;28;20047;-50
2023/05/30 13:48:28;;;;;;;12.57;5.93;;;;;;;;;;6282716;28;20499;-49
2023/05/30 13:51:28;;;;;;;12.03;6.27;;;;;;;;;;6278189;28;20051;-49
2023/05/30 13:54:30;;;;;;;18.30;6.40;;;;;;;;;;6257374;28;20048;-57
2023/05/30 13:57:30;;;;;;;14.85;6.03;;;;;;;;;;6281529;28;20052;-50
2023/05/30 14:00:31;;;;;;;18.57;6.47;;;;;;;;;;6281324;28;20430;-49
2023/05/30 14:03:33;;;;;;;12.87;6.27;;;;;;;;;;6275520;28;20276;-50
2023/05/30 14:06:36;;;;;;;15.68;6.78;;;;;;;;;;6275043;28;20064;-52
2023/05/30 14:09:36;;;;;;;16.50;6.13;;;;;;;;;;6280170;28;20438;-51
2023/05/30 14:12:37;;;;;;;15.27;6.53;;;;;;;;;;6278717;28;20143;-51
2023/05/30 14:15:39;;;;;;;12.98;6.28;;;;;;;;;;6275827;28;20056;-50
2023/05/30 14:18:44;;;;;;;17.48;6.28;;;;;;;;;;6280723;28;20084;-49
2023/05/30 14:21:46;;;;;;;11.98;6.50;;;;;;;;;;6276942;28;20130;-48
2023/05/30 14:24:47;;;;;;;14.85;5.85;;;;;;;;;;6276068;28;20411;-55
2023/05/30 14:27:47;;;;;;;12.67;6.87;;;;;;;;;;6282306;28;20080;-49
2023/05/30 14:30:48;;;;;;;16.23;6.50;;;;;;;;;;6282393;28;20391;-49
2023/05/30 14:33:49;;;;;;;14.40;6.33;;;;;;;;;;6279039;28;20276;-50
2023/05/30 14:36:50;;;;;;;14.32;6.45;;;;;;;;;;6281847;28;20090;-48
2023/05/30 14:39:51;;;;;;;15.70;6.30;;;;;;;;;;6282304;28;20135;-47
2023/05/30 14:42:52;;;;;;;14.50;6.40;;;;;;;;;;6281738;28;20045;-49
2023/05/30 14:45:52;;;;;;;14.70;6.03;;;;;;;;;;6279591;28;20048;-49
2023/05/30 14:48:53;;;;;;;12.43;6.70;;;;;;;;;;6281828;28;20050;-48
2023/05/30 14:51:55;;;;;;;17.73;6.13;;;;;;;;;;6282958;28;20543;-53
2023/05/30 14:54:56;;;;;;;12.10;6.18;;;;;;;;;;6278735;28;20084;-50
2023/05/30 14:57:56;;;;;;;17.57;6.30;;;;;;;;;;6278980;28;20054;-48
2023/05/30 15:00:57;;;;;;;11.15;5.90;;;;;;;;;;6281849;28;20780;-50
2023/05/30 15:03:58;;;;;;;13.30;6.00;;;;;;;;;;6278738;28;20053;-49
2023/05/30 15:06:58;;;;;;;12.90;5.37;;;;;;;;;;6282121;28;20541;-54
2023/05/30 15:09:59;;;;;;;11.80;5.83;;;;;;;;;;6280831;28;20414;-48
2023/05/30 15:13:00;;;;;;;11.00;5.63;;;;;;;;;;6278145;28;20048;-49
2023/05/30 15:16:00;;;;;;;15.00;6.40;;;;;;;;;;6281912;28;20063;-51
2023/05/30 15:19:02;;;;;;;11.25;5.63;;;;;;;;;;6284403;28;20079;-48
2023/05/30 15:22:04;;;;;;;13.00;5.70;;;;;;;;;;6287085;28;20849;-57
2023/05/30 15:25:05;;;;;;;13.52;6.45;;;;;;;;;;6281282;28;20332;-51
2023/05/30 15:28:06;;;;;;;12.70;6.03;;;;;;;;;;6285315;28;20052;-49
2023/05/30 15:31:06;;;;;;;15.40;6.00;;;;;;;;;;6286419;28;20484;-59
2023/05/30 15:34:07;;;;;;;13.63;5.70;;;;;;;;;;6284018;28;20564;-52
2023/05/30 15:37:08;;;;;;;12.70;5.67;;;;;;;;;;6286761;28;20178;-52
2023/05/30 15:40:11;;;;;;;10.95;5.75;;;;;;;;;;6287374;28;20057;-51
2023/05/30 15:43:12;;;;;;;13.75;5.35;;;;;;;;;;6283743;28;20205;-50
2023/05/30 15:46:17;;;;;;;11.43;6.07;;;;;;;;;;6285558;28;20056;-50
2023/05/30 15:49:19;;;;;;;13.00;6.03;;;;;;;;;;6287122;28;20064;-52
2023/05/30 15:52:19;;;;;;;11.97;6.30;;;;;;;;;;6288484;28;20048;-49
2023/05/30 15:55:20;;;;;;;15.27;5.80;;;;;;;;;;6285864;28;20048;-53
2023/05/30 15:58:21;;;;;;;19.50;5.70;;;;;;;;;;6284750;28;20044;-55
2023/05/30 16:01:22;;;;;;;13.43;5.60;;;;;;;;;;6289096;28;20072;-56
2023/05/30 16:04:22;;;;;;;15.37;5.80;;;;;;;;;;6285551;28;20048;-47
2023/05/30 16:07:24;;;;;;;14.95;5.85;;;;;;;;;;6277903;28;20047;-54
2023/05/30 16:10:24;;;;;;;14.87;5.90;;;;;;;;;;6289320;28;20516;-48
2023/05/30 16:13:25;;;;;;;11.00;5.00;;;;;;;;;;6286513;28;20211;-47
2023/05/30 16:16:26;;;;;;;12.03;5.40;;;;;;;;;;6287113;28;20048;-48
2023/05/30 16:19:27;;;;;;;11.40;5.22;;;;;;;;;;6288716;28;20045;-53
2023/05/30 16:22:28;;;;;;;16.53;5.13;;;;;;;;;;6288147;28;20468;-56
2023/05/30 16:25:29;;;;;;;12.20;5.10;;;;;;;;;;6282004;28;20423;-56
2023/05/30 16:28:29;;;;;;;19.87;5.27;;;;;;;;;;6287168;28;20313;-56
2023/05/30 16:31:30;;;;;;;13.33;5.00;;;;;;;;;;6285449;28;20060;-58
2023/05/30 16:34:31;;;;;;;10.63;5.00;;;;;;;;;;6282721;28;20519;-48
2023/05/30 16:37:32;;;;;;;15.27;5.33;;;;;;;;;;6285117;28;20427;-51
2023/05/30 16:40:32;;;;;;;11.93;5.00;;;;;;;;;;6286385;28;20487;-50
2023/05/30 16:43:33;;;;;;;14.17;4.73;;;;;;;;;;6279943;28;20106;-49
2023/05/30 16:46:34;;;;;;;12.20;4.40;;;;;;;;;;6271142;28;20045;-48
2023/05/30 16:49:35;;;;;;;12.75;4.65;;;;;;;;;;6285409;28;20053;-54
2023/05/30 16:52:35;;;;;;;12.53;4.67;;;;;;;;;;6287629;28;20075;-49
2023/05/30 16:55:36;;;;;;;15.00;4.50;;;;;;;;;;6278845;28;20053;-54
2023/05/30 16:58:36;;;;;;;13.53;4.60;;;;;;;;;;6284531;28;20045;-51
2023/05/30 17:01:37;;;;;;;11.23;4.73;;;;;;;;;;6282320;28;20060;-55
2023/05/30 17:04:38;;;;;;;13.03;4.97;;;;;;;;;;6282848;28;20423;-54
2023/05/30 17:07:39;;;;;;;17.33;5.37;;;;;;;;;;6282256;28;20516;-51
2023/05/30 17:10:40;;;;;;;11.83;5.03;;;;;;;;;;6280550;28;20495;-55
2023/05/30 17:13:41;;;;;;;18.15;5.10;;;;;;;;;;6275977;28;20577;-47
2023/05/30 17:16:42;;;;;;;9.95;4.60;;;;;;;;;;6281060;28;20586;-54
2023/05/30 17:19:42;;;;;;;12.90;4.97;;;;;;;;;;6283418;28;20632;-48
2023/05/30 17:22:43;;;;;;;12.27;4.30;;;;;;;;;;6283681;28;20050;-53
2023/05/30 17:25:44;;;;;;;14.20;4.47;;;;;;;;;;6276713;28;20052;-50
2023/05/30 17:28:45;;;;;;;13.45;4.72;;;;;;;;;;6285317;28;20233;-48
2023/05/30 17:31:46;;;;;;;17.83;4.80;;;;;;;;;;6282311;28;20071;-47
2023/05/30 17:34:46;;;;;;;11.17;4.10;;;;;;;;;;6279672;28;20040;-48
2023/05/30 17:37:47;;;;;;;11.33;4.83;;;;;;;;;;6284131;28;20044;-47
2023/05/30 17:40:48;;;;;;;14.23;4.97;;;;;;;;;;6283973;28;20105;-48
2023/05/30 17:43:49;;;;;;;15.77;5.50;;;;;;;;;;6276744;28;21884;-47
2023/05/30 17:46:49;;;;;;;12.00;5.77;;;;;;;;;;6282643;28;20130;-50
2023/05/30 17:49:50;;;;;;;15.33;5.87;;;;;;;;;;6283269;28;20516;-48
2023/05/30 17:52:51;;;;;;;13.23;5.30;;;;;;;;;;6282165;28;20440;-52
2023/05/30 17:55:53;;;;;;;14.43;5.63;;;;;;;;;;6278673;28;20502;-58
2023/05/30 17:58:53;;;;;;;15.00;6.07;;;;;;;;;;6283350;28;20040;-46